Time,TemperatureF,DewpointF,PressureIn,WindDirection,WindDirectionDegrees,WindSpeedMPH,WindSpeedGustMPH,Humidity,HourlyPrecipIn,Conditions,Clouds,dailyrainin,SoftwareType,DateUTC
2013-02-25 00:32:00,-999.0,-99.9,-100.00,SSW,209,4.0,6.0,-999,-99.99,,,-99.99,,2013-02-25 06:32:00,
2013-02-25 00:42:00,-999.0,-99.9,30.15,SSW,209,4.0,6.0,-999,-99.99,,,-99.99,,2013-02-25 06:42:00,
2013-02-25 01:01:00,23.0,-99.9,30.14,SSW,213,5.0,6.0,-999,-99.99,,,-99.99,,2013-02-25 07:01:00,
2013-02-25 02:01:00,-999.0,-99.9,-100.00,SSW,213,3.0,4.0,-999,-99.99,,,-99.99,,2013-02-25 08:01:00,
2013-02-25 02:11:00,-999.0,-99.9,30.16,SSW,213,3.0,4.0,-999,-99.99,,,-99.99,,2013-02-25 08:11:00,
2013-02-25 02:32:00,-999.0,-99.9,-100.00,SSW,212,3.0,3.0,-999,-99.99,,,-99.99,,2013-02-25 08:32:00,
2013-02-25 02:42:00,-999.0,-99.9,30.16,SSW,212,3.0,3.0,-999,-99.99,,,-99.99,,2013-02-25 08:42:00,
2013-02-25 03:02:00,19.0,-99.9,30.16,SW,224,3.0,4.0,-999,-99.99,,,-99.99,,2013-02-25 09:02:00,
2013-02-25 03:32:00,16.0,-99.9,30.16,SSW,213,4.0,4.0,-999,-99.99,,,-99.99,,2013-02-25 09:32:00,
2013-02-25 04:01:00,-999.0,-99.9,-100.00,SW,216,2.0,3.0,-999,-99.99,,,-99.99,,2013-02-25 10:01:00,
2013-02-25 04:11:00,-999.0,-99.9,30.15,SW,216,2.0,3.0,-999,-99.99,,,-99.99,,2013-02-25 10:11:00,
2013-02-25 04:32:00,15.0,-99.9,30.15,SSW,213,2.0,2.0,-999,-99.99,,,-99.99,,2013-02-25 10:32:00,
2013-02-25 05:32:00,-999.0,-99.9,-100.00,South,189,2.0,4.0,-999,-99.99,,,-99.99,,2013-02-25 11:32:00,
2013-02-25 05:42:00,-999.0,-99.9,30.15,South,189,2.0,4.0,-999,-99.99,,,-99.99,,2013-02-25 11:42:00,
2013-02-25 06:02:00,19.0,-99.9,30.16,SSW,207,2.0,3.0,-999,-99.99,,,-99.99,,2013-02-25 12:02:00,
2013-02-25 07:03:00,-999.0,-99.9,-100.00,South,182,4.0,6.0,-999,-99.99,,,-99.99,,2013-02-25 13:03:00,
2013-02-25 07:12:00,-999.0,-99.9,30.17,South,182,4.0,6.0,-999,-99.99,,,-99.99,,2013-02-25 13:12:00,
2013-02-25 07:32:00,21.0,-99.9,30.17,SW,219,5.0,6.0,-999,-99.99,,,-99.99,,2013-02-25 13:32:00,
2013-02-25 08:32:00,24.0,-99.9,30.18,SW,216,6.0,7.0,-999,-99.99,,,-99.99,,2013-02-25 14:32:00,
2013-02-25 09:03:00,-999.0,-99.9,-100.00,SSW,197,2.0,3.0,-999,-99.99,,,-99.99,,2013-02-25 15:03:00,
2013-02-25 09:11:00,-999.0,-99.9,30.17,SSW,197,2.0,3.0,-999,-99.99,,,-99.99,,2013-02-25 15:11:00,
2013-02-25 09:32:00,27.0,-99.9,30.17,SSE,155,3.0,3.0,-999,-99.99,,,-99.99,,2013-02-25 15:32:00,
2013-02-25 10:02:00,28.0,-99.9,30.18,South,178,4.0,6.0,-999,-99.99,,,-99.99,,2013-02-25 16:02:00,
2013-02-25 10:32:00,-999.0,-99.9,-100.00,SSE,163,8.0,8.0,-999,-99.99,,,-99.99,,2013-02-25 16:32:00,
2013-02-25 10:42:00,-999.0,-99.9,30.18,SSE,163,8.0,8.0,-999,-99.99,,,-99.99,,2013-02-25 16:42:00,
2013-02-25 11:02:00,31.0,-99.9,30.17,SSE,150,7.0,8.0,-999,-99.99,,,-99.99,,2013-02-25 17:02:00,
2013-02-25 12:02:00,-999.0,-99.9,-100.00,South,169,9.0,11.0,-999,-99.99,,,-99.99,,2013-02-25 18:02:00,
2013-02-25 12:12:00,-999.0,-99.9,30.16,South,169,9.0,11.0,-999,-99.99,,,-99.99,,2013-02-25 18:12:00,
2013-02-25 12:21:00,-999.0,-99.9,30.16,South,169,9.0,11.0,-999,-99.99,,,-99.99,,2013-02-25 18:21:00,
2013-02-25 12:33:00,35.0,-99.9,30.16,SSW,204,11.0,14.0,-999,-99.99,,,-99.99,,2013-02-25 18:33:00,
2013-02-25 12:42:00,34.0,-99.9,30.16,North,-999,-999.0,-999.0,-999,-99.99,,,-99.99,,2013-02-25 18:42:00,
2013-02-25 12:52:00,34.0,-99.9,30.15,North,-999,-999.0,-999.0,-999,-99.99,,,-99.99,,2013-02-25 18:52:00,
2013-02-25 13:02:00,34.0,-99.9,30.15,North,-999,-999.0,-999.0,-999,-99.99,,,-99.99,,2013-02-25 19:02:00,
2013-02-25 13:11:00,35.0,-99.9,30.15,North,-999,-999.0,-999.0,-999,-99.99,,,-99.99,,2013-02-25 19:11:00,
2013-02-25 13:22:00,33.0,-99.9,30.14,North,-999,-999.0,-999.0,-999,-99.99,,,-99.99,,2013-02-25 19:22:00,
2013-02-25 13:32:00,-999.0,-99.9,-100.00,SSE,149,6.0,11.0,-999,-99.99,,,-99.99,,2013-02-25 19:32:00,
2013-02-25 13:42:00,34.0,-99.9,30.14,SSE,149,6.0,11.0,-999,-99.99,,,-99.99,,2013-02-25 19:42:00,
2013-02-25 13:52:00,36.0,-99.9,30.13,North,-999,-999.0,-999.0,-999,-99.99,,,-99.99,,2013-02-25 19:52:00,
2013-02-25 14:01:00,35.0,-99.9,30.13,SSE,167,9.0,13.0,-999,-99.99,,,-99.99,,2013-02-25 20:01:00,
2013-02-25 14:11:00,36.0,-99.9,30.12,North,-999,-999.0,-999.0,-999,-99.99,,,-99.99,,2013-02-25 20:11:00,
2013-02-25 14:22:00,35.0,-99.9,30.13,North,-999,-999.0,-999.0,-999,-99.99,,,-99.99,,2013-02-25 20:22:00,
2013-02-25 14:32:00,31.0,-99.9,30.13,SE,131,12.0,14.0,-999,-99.99,,,-99.99,,2013-02-25 20:32:00,
2013-02-25 15:02:00,31.0,-99.9,30.13,SSE,151,9.0,11.0,-999,-99.99,,,-99.99,,2013-02-25 21:02:00,
2013-02-25 15:11:00,33.0,-99.9,30.13,North,-999,-999.0,-999.0,-999,-99.99,,,-99.99,,2013-02-25 21:11:00,
2013-02-25 15:22:00,33.0,-99.9,30.14,North,-999,-999.0,-999.0,-999,-99.99,,,-99.99,,2013-02-25 21:22:00,
2013-02-25 15:32:00,-999.0,-99.9,-100.00,SSE,152,6.0,8.0,-999,-99.99,,,-99.99,,2013-02-25 21:32:00,
2013-02-25 15:42:00,-999.0,-99.9,30.13,SSE,152,6.0,8.0,-999,-99.99,,,-99.99,,2013-02-25 21:42:00,
2013-02-25 16:02:00,32.0,-99.9,30.13,SE,146,7.0,8.0,-999,-99.99,,,-99.99,,2013-02-25 22:02:00,
2013-02-25 16:32:00,32.0,-99.9,30.13,SE,137,5.0,6.0,-999,-99.99,,,-99.99,,2013-02-25 22:32:00,
2013-02-25 17:01:00,-999.0,-99.9,-100.00,SSE,152,8.0,9.0,-999,-99.99,,,-99.99,,2013-02-25 23:01:00,
2013-02-25 17:11:00,-999.0,-99.9,30.13,SSE,152,8.0,9.0,-999,-99.99,,,-99.99,,2013-02-25 23:11:00,
2013-02-25 17:32:00,31.0,-99.9,30.13,SE,144,6.0,6.0,-999,-99.99,,,-99.99,,2013-02-25 23:32:00,
2013-02-25 18:02:00,31.0,-99.9,30.14,SSE,148,4.0,6.0,-999,-99.99,,,-99.99,,2013-02-26 00:02:00,
2013-02-25 18:32:00,-999.0,-99.9,-100.00,SE,139,6.0,6.0,-999,-99.99,,,-99.99,,2013-02-26 00:32:00,
2013-02-25 18:42:00,-999.0,-99.9,30.13,SE,139,6.0,6.0,-999,-99.99,,,-99.99,,2013-02-26 00:42:00,
2013-02-25 19:02:00,30.0,-99.9,30.13,East,99,3.0,4.0,-999,-99.99,,,-99.99,,2013-02-26 01:02:00,
2013-02-25 20:02:00,-999.0,-99.9,-100.00,ESE,111,5.0,6.0,-999,-99.99,,,-99.99,,2013-02-26 02:02:00,
2013-02-25 20:11:00,-999.0,-99.9,30.13,ESE,111,5.0,6.0,-999,-99.99,,,-99.99,,2013-02-26 02:11:00,
2013-02-25 20:32:00,28.0,-99.9,30.12,East,101,2.0,3.0,-999,-99.99,,,-99.99,,2013-02-26 02:32:00,
2013-02-25 21:32:00,-999.0,-99.9,-100.00,East,84,3.0,3.0,-999,-99.99,,,-99.99,,2013-02-26 03:32:00,
2013-02-25 21:42:00,-999.0,-99.9,30.12,East,84,3.0,3.0,-999,-99.99,,,-99.99,,2013-02-26 03:42:00,
2013-02-25 22:02:00,28.0,-99.9,30.12,SSE,158,4.0,5.0,-999,-99.99,,,-99.99,,2013-02-26 04:02:00,
2013-02-25 23:01:00,26.0,-99.9,30.12,North,-999,2.0,4.0,-999,-99.99,,,-99.99,,2013-02-26 05:01:00,
2013-02-25 23:32:00,-999.0,-99.9,-100.00,NE,47,1.0,4.0,-999,-99.99,,,-99.99,,2013-02-26 05:32:00,
2013-02-25 23:43:00,-999.0,-99.9,30.14,NE,47,1.0,4.0,-999,-99.99,,,-99.99,,2013-02-26 05:43:00,